Etusivu
METAR-TAF:

METAR-TAF

Lentoasemat :

Malmön lentoasema

Malmö, Ruotsi

Leveyspiiri: 55-33N, Pituuspiiri: 013-22E, korkeus merenpinnasta: 106 m

Tämänhetkinen sää

Tämä raportti tehtiin 21 minuuttia sitten, kello 12.20 UTC
Tuuli 12 kn luoteesta
Lämpötila 13°C
Kosteus 51%
Ilmanpaine 1034 hPa
Näkyvyys 10 km tai enemmän
Muutamia pilviä 4500 ft:n korkeudessa

METAR: ESMS 251220Z 31012KT 9999 FEW045 13/03 Q1034

Aika: 14:41 (12:41 UTC)

Sääennuste

Tämä raportti tehtiin 1 tunti ja 40 minuuttia sitten, kello 11.01 UTC
Ennuste voimassa 25. päivästä klo 12 UTC - 26. päivään klo 12 UTC
Tuuli 8 kn lännestä/luoteesta
Näkyvyys 10 km tai enemmän
Muutamia pilviä 4000 ft:n korkeudessa
Tulossa
26. päivästä klo 00 UTC - 26. päivään klo 03 UTC
Tuuli 15 kn lännestä/lounaasta
Ajoittain
26. päivästä klo 03 UTC - 26. päivään klo 12 UTC
Tuuli 18 kn lännestä/lounaasta puuskistuen 32 kn:hen

TAF: ESMS 251101Z 2512/2612 30008KT 9999 FEW040 BECMG 2600/2603 24015KT TEMPO 2603/2612 24018G32KT

Säähavainnot ja -ennusteet yli 4000 lentoasemalta (METAR- ja TAF-raportit).

Käytössä olevat sääasemat on merkitty karttaan keltaisilla ja punaisilla pisteillä.

Aseta hiiri pisteen päälle nähdäksesi sääaseman nimen.

Klikkaa sitten nähdäksesi säähavainnot ja -ennusteet.

Kartan vaihtaminen: klikkaa mustalla rastilla varustettuja vihreitä pisteitä, niin voit zoomata sisään; viivalla varustettua vihreää pistettä, niin voit zoomata ulos tai vihreitä nuolia, niin pääset viereisille kartoille.


METAR-TAF: